Blanchardville, Wisconsin
Current Conditions -  °F | °C
As of 11:55 AM on Monday 24 Nov 2014 (Local Time) from KEFT Reporting Station
Light Snow Light Snow  
Wind Chill: 15°   Ceiling: 700
Heat Index: 30°   Visibility: 0.75mi
Dew Point: 28°   Wind: 30mph
Humidity: 93%   Direction: 250°WSW
Pressure: 29.29"   Gusts: 35mph
Location:  42.81°N, 89.86°W
Report Text: KEFT 241755Z AUTO 25026G30KT 3/4SM -SN OVC007 M01/M02 A2929 RMK AO2
Loading
Personal Weather Stations






























Interactive Weather Map New forecast layout! Learn more

10-Day Weather Forecast

Advertisements
Track Severe Weather on mobile